sensor_id;sensor_type;location;lat;lon;timestamp;pressure;altitude;pressure_sealevel;temperature;humidity
4392;BME280;2210;51.938;8.488;2024-02-14T00:02:57;100532.00;;;6.66;100.00
4392;BME280;2210;51.938;8.488;2024-02-14T00:07:01;100527.59;;;6.71;100.00
4392;BME280;2210;51.938;8.488;2024-02-14T00:11:01;100523.56;;;6.74;100.00
4392;BME280;2210;51.938;8.488;2024-02-14T00:15:05;100514.97;;;6.77;100.00
4392;BME280;2210;51.938;8.488;2024-02-14T00:19:13;100507.78;;;6.83;100.00
4392;BME280;2210;51.938;8.488;2024-02-14T00:23:14;100505.25;;;6.88;100.00
4392;BME280;2210;51.938;8.488;2024-02-14T00:27:17;100499.31;;;6.91;100.00
4392;BME280;2210;51.938;8.488;2024-02-14T00:31:27;100500.59;;;6.95;100.00
4392;BME280;2210;51.938;8.488;2024-02-14T00:35:28;100497.81;;;7.02;100.00
4392;BME280;2210;51.938;8.488;2024-02-14T00:39:28;100495.06;;;7.08;100.00
4392;BME280;2210;51.938;8.488;2024-02-14T00:43:28;100497.38;;;7.12;100.00
4392;BME280;2210;51.938;8.488;2024-02-14T00:47:29;100490.41;;;7.16;100.00
4392;BME280;2210;51.938;8.488;2024-02-14T00:51:35;100484.09;;;7.15;100.00
4392;BME280;2210;51.938;8.488;2024-02-14T00:55:46;100473.50;;;7.19;100.00
4392;BME280;2210;51.938;8.488;2024-02-14T00:59:56;100468.66;;;7.21;100.00
4392;BME280;2210;51.938;8.488;2024-02-14T01:04:11;100457.91;;;7.26;100.00
4392;BME280;2210;51.938;8.488;2024-02-14T01:08:12;100459.34;;;7.29;100.00
4392;BME280;2210;51.938;8.488;2024-02-14T01:12:31;100460.84;;;7.31;100.00
4392;BME280;2210;51.938;8.488;2024-02-14T01:16:42;100460.38;;;7.34;100.00
4392;BME280;2210;51.938;8.488;2024-02-14T01:20:42;100454.03;;;7.34;100.00
4392;BME280;2210;51.938;8.488;2024-02-14T01:24:43;100442.69;;;7.30;100.00
4392;BME280;2210;51.938;8.488;2024-02-14T01:28:43;100454.94;;;7.28;100.00
4392;BME280;2210;51.938;8.488;2024-02-14T01:32:47;100449.25;;;7.22;100.00
4392;BME280;2210;51.938;8.488;2024-02-14T01:36:48;100439.34;;;7.15;100.00
4392;BME280;2210;51.938;8.488;2024-02-14T01:40:54;100435.78;;;7.14;100.00
4392;BME280;2210;51.938;8.488;2024-02-14T01:44:54;100433.25;;;7.13;100.00
4392;BME280;2210;51.938;8.488;2024-02-14T01:48:57;100433.03;;;7.14;100.00
4392;BME280;2210;51.938;8.488;2024-02-14T01:53:04;100425.00;;;7.19;100.00
4392;BME280;2210;51.938;8.488;2024-02-14T01:57:05;100416.34;;;7.22;100.00
4392;BME280;2210;51.938;8.488;2024-02-14T02:01:06;100413.59;;;7.22;100.00
4392;BME280;2210;51.938;8.488;2024-02-14T02:05:13;100411.91;;;7.21;100.00
4392;BME280;2210;51.938;8.488;2024-02-14T02:09:13;100406.41;;;7.28;100.00
4392;BME280;2210;51.938;8.488;2024-02-14T02:13:20;100403.00;;;7.33;100.00
4392;BME280;2210;51.938;8.488;2024-02-14T02:17:21;100403.00;;;7.33;100.00
4392;BME280;2210;51.938;8.488;2024-02-14T02:21:21;100396.03;;;7.37;100.00
4392;BME280;2210;51.938;8.488;2024-02-14T02:25:26;100393.66;;;7.40;100.00
4392;BME280;2210;51.938;8.488;2024-02-14T02:29:27;100395.34;;;7.41;100.00
4392;BME280;2210;51.938;8.488;2024-02-14T02:33:30;100389.88;;;7.41;100.00
4392;BME280;2210;51.938;8.488;2024-02-14T02:37:30;100388.16;;;7.47;100.00
4392;BME280;2210;51.938;8.488;2024-02-14T02:41:46;100378.38;;;7.58;100.00
4392;BME280;2210;51.938;8.488;2024-02-14T02:45:48;100377.31;;;7.59;100.00
4392;BME280;2210;51.938;8.488;2024-02-14T02:49:49;100377.94;;;7.61;100.00
4392;BME280;2210;51.938;8.488;2024-02-14T02:53:49;100374.53;;;7.66;100.00
4392;BME280;2210;51.938;8.488;2024-02-14T02:57:54;100374.53;;;7.66;100.00
4392;BME280;2210;51.938;8.488;2024-02-14T03:01:55;100365.47;;;7.65;100.00
4392;BME280;2210;51.938;8.488;2024-02-14T03:06:01;100364.38;;;7.66;100.00
4392;BME280;2210;51.938;8.488;2024-02-14T03:10:03;100364.38;;;7.66;100.00
4392;BME280;2210;51.938;8.488;2024-02-14T03:14:04;100358.47;;;7.69;100.00
4392;BME280;2210;51.938;8.488;2024-02-14T03:18:04;100358.63;;;7.74;100.00
4392;BME280;2210;51.938;8.488;2024-02-14T03:22:15;100356.28;;;7.78;100.00
4392;BME280;2210;51.938;8.488;2024-02-14T03:26:16;100360.47;;;7.81;100.00
4392;BME280;2210;51.938;8.488;2024-02-14T03:30:16;100354.53;;;7.84;100.00
4392;BME280;2210;51.938;8.488;2024-02-14T03:34:17;100356.00;;;7.86;100.00
4392;BME280;2210;51.938;8.488;2024-02-14T03:38:26;100341.63;;;7.91;100.00
4392;BME280;2210;51.938;8.488;2024-02-14T03:42:26;100354.06;;;7.93;100.00
4392;BME280;2210;51.938;8.488;2024-02-14T03:46:27;100357.19;;;7.97;100.00
4392;BME280;2210;51.938;8.488;2024-02-14T03:50:33;100347.41;;;8.01;100.00
4392;BME280;2210;51.938;8.488;2024-02-14T03:54:43;100347.06;;;7.98;100.00
4392;BME280;2210;51.938;8.488;2024-02-14T03:58:47;100353.53;;;8.03;100.00
4392;BME280;2210;51.938;8.488;2024-02-14T04:02:48;100355.00;;;8.06;100.00
4392;BME280;2210;51.938;8.488;2024-02-14T04:06:49;100354.31;;;8.10;100.00
4392;BME280;2210;51.938;8.488;2024-02-14T04:10:49;100358.97;;;8.10;100.00
4392;BME280;2210;51.938;8.488;2024-02-14T04:14:54;100363.38;;;8.11;100.00
4392;BME280;2210;51.938;8.488;2024-02-14T04:18:55;100359.75;;;8.17;100.00
4392;BME280;2210;51.938;8.488;2024-02-14T04:22:56;100355.72;;;8.20;100.00
4392;BME280;2210;51.938;8.488;2024-02-14T04:26:56;100350.44;;;8.18;100.00
4392;BME280;2210;51.938;8.488;2024-02-14T04:30:57;100345.97;;;8.24;100.00
4392;BME280;2210;51.938;8.488;2024-02-14T04:35:07;100347.63;;;8.25;100.00
4392;BME280;2210;51.938;8.488;2024-02-14T04:39:08;100351.00;;;8.27;100.00
4392;BME280;2210;51.938;8.488;2024-02-14T04:43:09;100354.19;;;8.24;100.00
4392;BME280;2210;51.938;8.488;2024-02-14T04:47:10;100360.56;;;8.18;100.00
4392;BME280;2210;51.938;8.488;2024-02-14T04:51:10;100354.25;;;8.17;100.00
4392;BME280;2210;51.938;8.488;2024-02-14T04:55:11;100348.75;;;8.17;100.00
4392;BME280;2210;51.938;8.488;2024-02-14T04:59:11;100344.34;;;8.16;100.00
4392;BME280;2210;51.938;8.488;2024-02-14T05:03:18;100350.44;;;8.18;100.00
4392;BME280;2210;51.938;8.488;2024-02-14T05:07:27;100343.72;;;8.14;100.00
4392;BME280;2210;51.938;8.488;2024-02-14T05:11:35;100354.31;;;8.10;100.00
4392;BME280;2210;51.938;8.488;2024-02-14T05:15:38;100351.41;;;8.05;100.00
4392;BME280;2210;51.938;8.488;2024-02-14T05:19:42;100348.94;;;7.97;100.00
4392;BME280;2210;51.938;8.488;2024-02-14T05:23:43;100348.47;;;8.00;100.00
4392;BME280;2210;51.938;8.488;2024-02-14T05:27:43;100346.81;;;7.99;100.00
4392;BME280;2210;51.938;8.488;2024-02-14T05:31:49;100355.28;;;7.98;100.00
4392;BME280;2210;51.938;8.488;2024-02-14T05:35:52;100362.66;;;7.97;100.00
4392;BME280;2210;51.938;8.488;2024-02-14T05:39:54;100356.56;;;7.95;100.00
4392;BME280;2210;51.938;8.488;2024-02-14T05:44:00;100374.94;;;7.94;100.00
4392;BME280;2210;51.938;8.488;2024-02-14T05:48:07;100373.03;;;7.95;100.00
4392;BME280;2210;51.938;8.488;2024-02-14T05:52:07;100369.66;;;7.93;100.00
4392;BME280;2210;51.938;8.488;2024-02-14T05:56:08;100375.16;;;7.93;100.00
4392;BME280;2210;51.938;8.488;2024-02-14T06:00:08;100376.03;;;7.93;100.00
4392;BME280;2210;51.938;8.488;2024-02-14T06:04:10;100379.38;;;7.96;100.00
4392;BME280;2210;51.938;8.488;2024-02-14T06:08:10;100378.91;;;7.99;100.00
4392;BME280;2210;51.938;8.488;2024-02-14T06:12:11;100384.19;;;8.00;100.00
4392;BME280;2210;51.938;8.488;2024-02-14T06:16:20;100385.25;;;7.99;100.00
4392;BME280;2210;51.938;8.488;2024-02-14T06:20:20;100399.59;;;8.01;100.00
4392;BME280;2210;51.938;8.488;2024-02-14T06:24:24;100394.09;;;8.01;100.00
4392;BME280;2210;51.938;8.488;2024-02-14T06:28:30;100406.78;;;8.02;100.00
4392;BME280;2210;51.938;8.488;2024-02-14T06:32:33;100408.22;;;8.05;100.00
4392;BME280;2210;51.938;8.488;2024-02-14T06:36:33;100414.31;;;8.07;100.00
4392;BME280;2210;51.938;8.488;2024-02-14T06:40:40;100411.81;;;8.05;100.00
4392;BME280;2210;51.938;8.488;2024-02-14T06:44:52;100417.47;;;8.10;100.00
4392;BME280;2210;51.938;8.488;2024-02-14T06:48:53;100406.25;;;8.12;100.00
4392;BME280;2210;51.938;8.488;2024-02-14T06:52:54;100428.63;;;8.16;100.00
4392;BME280;2210;51.938;8.488;2024-02-14T06:56:59;100430.31;;;8.17;100.00
4392;BME280;2210;51.938;8.488;2024-02-14T07:01:00;100425.66;;;8.17;100.00
4392;BME280;2210;51.938;8.488;2024-02-14T07:05:00;100430.69;;;8.20;100.00
4392;BME280;2210;51.938;8.488;2024-02-14T07:09:05;100437.88;;;8.21;100.00
4392;BME280;2210;51.938;8.488;2024-02-14T07:13:09;100435.31;;;8.26;100.00
4392;BME280;2210;51.938;8.488;2024-02-14T07:17:18;100436.53;;;8.31;100.00
4392;BME280;2210;51.938;8.488;2024-02-14T07:21:21;100440.75;;;8.33;100.00
4392;BME280;2210;51.938;8.488;2024-02-14T07:25:22;100436.72;;;8.36;100.00
4392;BME280;2210;51.938;8.488;2024-02-14T07:29:22;100437.72;;;8.41;100.00
4392;BME280;2210;51.938;8.488;2024-02-14T07:33:26;100443.81;;;8.43;100.00
4392;BME280;2210;51.938;8.488;2024-02-14T07:37:32;100440.66;;;8.47;100.00
4392;BME280;2210;51.938;8.488;2024-02-14T07:41:35;100444.88;;;8.49;100.00
4392;BME280;2210;51.938;8.488;2024-02-14T07:45:38;100462.78;;;8.52;100.00
4392;BME280;2210;51.938;8.488;2024-02-14T07:49:39;100468.06;;;8.53;100.00
4392;BME280;2210;51.938;8.488;2024-02-14T07:53:40;100468.44;;;8.57;100.00
4392;BME280;2210;51.938;8.488;2024-02-14T07:57:44;100477.31;;;8.59;100.00
4392;BME280;2210;51.938;8.488;2024-02-14T08:01:44;100466.69;;;8.63;100.00
4392;BME280;2210;51.938;8.488;2024-02-14T08:05:44;100480.00;;;8.66;100.00
4392;BME280;2210;51.938;8.488;2024-02-14T08:09:45;100483.13;;;8.69;100.00
4392;BME280;2210;51.938;8.488;2024-02-14T08:13:48;100498.78;;;8.69;100.00
4392;BME280;2210;51.938;8.488;2024-02-14T08:17:48;100479.09;;;8.72;100.00
4392;BME280;2210;51.938;8.488;2024-02-14T08:21:48;100489.84;;;8.73;100.00
4392;BME280;2210;51.938;8.488;2024-02-14T08:25:52;100481.41;;;8.75;100.00
4392;BME280;2210;51.938;8.488;2024-02-14T08:29:52;100494.06;;;8.76;100.00
4392;BME280;2210;51.938;8.488;2024-02-14T08:33:55;100494.44;;;8.80;100.00
4392;BME280;2210;51.938;8.488;2024-02-14T08:37:58;100496.16;;;8.81;100.00
4392;BME280;2210;51.938;8.488;2024-02-14T08:41:59;100499.50;;;8.83;100.00
4392;BME280;2210;51.938;8.488;2024-02-14T08:46:01;100495.69;;;8.84;100.00
4392;BME280;2210;51.938;8.488;2024-02-14T08:50:06;100499.25;;;8.84;100.00
4392;BME280;2210;51.938;8.488;2024-02-14T08:54:12;100497.97;;;8.87;100.00
4392;BME280;2210;51.938;8.488;2024-02-14T08:58:16;100504.94;;;8.89;100.00
4392;BME280;2210;51.938;8.488;2024-02-14T09:02:17;100508.31;;;8.91;100.00
4392;BME280;2210;51.938;8.488;2024-02-14T09:06:23;100505.91;;;8.95;100.00
4392;BME280;2210;51.938;8.488;2024-02-14T09:10:30;100505.50;;;8.98;100.00
4392;BME280;2210;51.938;8.488;2024-02-14T09:14:33;100505.41;;;9.05;100.00
4392;BME280;2210;51.938;8.488;2024-02-14T09:18:33;100509.41;;;9.09;100.00
4392;BME280;2210;51.938;8.488;2024-02-14T09:22:35;100512.75;;;9.11;100.00
4392;BME280;2210;51.938;8.488;2024-02-14T09:26:35;100509.53;;;9.14;100.00
4392;BME280;2210;51.938;8.488;2024-02-14T09:30:36;100508.47;;;9.15;100.00
4392;BME280;2210;51.938;8.488;2024-02-14T09:34:42;100505.94;;;9.14;100.00
4392;BME280;2210;51.938;8.488;2024-02-14T09:38:45;100515.66;;;9.16;100.00
4392;BME280;2210;51.938;8.488;2024-02-14T09:47:17;100516.06;;;9.20;100.00
4392;BME280;2210;51.938;8.488;2024-02-14T09:51:21;100523.22;;;9.21;100.00
4392;BME280;2210;51.938;8.488;2024-02-14T09:55:24;100522.78;;;9.24;100.00
4392;BME280;2210;51.938;8.488;2024-02-14T09:59:26;100524.22;;;9.26;100.00
4392;BME280;2210;51.938;8.488;2024-02-14T10:03:29;100521.59;;;9.32;100.00
4392;BME280;2210;51.938;8.488;2024-02-14T10:07:30;100530.25;;;9.35;100.00
4392;BME280;2210;51.938;8.488;2024-02-14T10:11:31;100531.47;;;9.39;100.00
4392;BME280;2210;51.938;8.488;2024-02-14T10:15:32;100537.13;;;9.44;100.00
4392;BME280;2210;51.938;8.488;2024-02-14T10:19:32;100543.63;;;9.50;100.00
4392;BME280;2210;51.938;8.488;2024-02-14T10:23:43;100537.41;;;9.55;100.00
4392;BME280;2210;51.938;8.488;2024-02-14T10:27:43;100548.59;;;9.60;100.00
4392;BME280;2210;51.938;8.488;2024-02-14T10:31:50;100553.94;;;9.73;100.00
4392;BME280;2210;51.938;8.488;2024-02-14T10:35:57;100545.34;;;9.82;100.00
4392;BME280;2210;51.938;8.488;2024-02-14T10:40:00;100552.69;;;9.88;100.00
4392;BME280;2210;51.938;8.488;2024-02-14T10:44:05;100541.44;;;9.89;100.00
4392;BME280;2210;51.938;8.488;2024-02-14T10:48:15;100555.59;;;9.93;100.00
4392;BME280;2210;51.938;8.488;2024-02-14T10:52:34;100559.56;;;9.97;100.00
4392;BME280;2210;51.938;8.488;2024-02-14T10:56:40;100551.44;;;10.02;100.00
4392;BME280;2210;51.938;8.488;2024-02-14T11:00:57;100554.31;;;10.07;100.00
4392;BME280;2210;51.938;8.488;2024-02-14T11:05:14;100551.09;;;10.10;100.00
4392;BME280;2210;51.938;8.488;2024-02-14T11:09:20;100550.66;;;10.13;100.00
4392;BME280;2210;51.938;8.488;2024-02-14T11:13:28;100552.31;;;10.15;100.00
4392;BME280;2210;51.938;8.488;2024-02-14T11:17:29;100545.88;;;10.21;100.00
4392;BME280;2210;51.938;8.488;2024-02-14T11:21:35;100552.94;;;10.17;100.00
4392;BME280;2210;51.938;8.488;2024-02-14T11:25:39;100551.25;;;10.16;100.00
4392;BME280;2210;51.938;8.488;2024-02-14T11:29:55;100553.16;;;10.15;100.00
4392;BME280;2210;51.938;8.488;2024-02-14T11:33:55;100557.22;;;10.12;100.00
4392;BME280;2210;51.938;8.488;2024-02-14T11:37:59;100561.91;;;10.12;100.00
4392;BME280;2210;51.938;8.488;2024-02-14T11:42:00;100557.59;;;10.16;100.00
4392;BME280;2210;51.938;8.488;2024-02-14T11:46:01;100559.06;;;10.19;100.00
4392;BME280;2210;51.938;8.488;2024-02-14T11:50:11;100558.59;;;10.22;100.00
4392;BME280;2210;51.938;8.488;2024-02-14T11:54:11;100563.03;;;10.23;100.00
4392;BME280;2210;51.938;8.488;2024-02-14T11:58:12;100568.97;;;10.20;100.00
4392;BME280;2210;51.938;8.488;2024-02-14T12:02:16;100560.28;;;10.23;100.00
4392;BME280;2210;51.938;8.488;2024-02-14T12:06:27;100569.75;;;10.27;100.00
4392;BME280;2210;51.938;8.488;2024-02-14T12:10:27;100564.59;;;10.30;100.00
4392;BME280;2210;51.938;8.488;2024-02-14T12:14:32;100567.09;;;10.32;100.00
4392;BME280;2210;51.938;8.488;2024-02-14T12:18:33;100567.72;;;10.34;100.00
4392;BME280;2210;51.938;8.488;2024-02-14T12:22:50;100573.47;;;10.33;100.00
4392;BME280;2210;51.938;8.488;2024-02-14T12:26:50;100565.22;;;10.33;100.00
4392;BME280;2210;51.938;8.488;2024-02-14T12:30:52;100574.31;;;10.33;100.00
4392;BME280;2210;51.938;8.488;2024-02-14T12:35:02;100582.38;;;10.35;100.00
4392;BME280;2210;51.938;8.488;2024-02-14T12:39:09;100576.00;;;10.34;100.00
4392;BME280;2210;51.938;8.488;2024-02-14T12:43:18;100571.34;;;10.35;100.00
4392;BME280;2210;51.938;8.488;2024-02-14T12:47:24;100577.72;;;10.35;100.00
4392;BME280;2210;51.938;8.488;2024-02-14T12:51:26;100571.09;;;10.36;100.00
4392;BME280;2210;51.938;8.488;2024-02-14T12:55:28;100568.50;;;10.41;100.00
4392;BME280;2210;51.938;8.488;2024-02-14T12:59:28;100561.91;;;10.42;100.00
4392;BME280;2210;51.938;8.488;2024-02-14T13:03:29;100555.09;;;10.45;100.00
4392;BME280;2210;51.938;8.488;2024-02-14T13:07:29;100566.50;;;10.49;100.00
4392;BME280;2210;51.938;8.488;2024-02-14T13:11:35;100558.81;;;10.51;100.00
4392;BME280;2210;51.938;8.488;2024-02-14T13:15:38;100563.84;;;10.54;100.00
4392;BME280;2210;51.938;8.488;2024-02-14T13:19:40;100571.03;;;10.55;100.00
4392;BME280;2210;51.938;8.488;2024-02-14T13:23:42;100564.22;;;10.57;100.00
4392;BME280;2210;51.938;8.488;2024-02-14T13:27:46;100559.53;;;10.58;100.00
4392;BME280;2210;51.938;8.488;2024-02-14T13:31:46;100548.88;;;10.61;100.00
4392;BME280;2210;51.938;8.488;2024-02-14T13:35:52;100559.56;;;10.70;100.00
4392;BME280;2210;51.938;8.488;2024-02-14T13:39:53;100552.88;;;10.77;100.00
4392;BME280;2210;51.938;8.488;2024-02-14T13:43:59;100560.16;;;10.84;100.00
4392;BME280;2210;51.938;8.488;2024-02-14T13:48:02;100554.78;;;10.89;100.00
4392;BME280;2210;51.938;8.488;2024-02-14T13:52:04;100552.41;;;10.92;100.00
4392;BME280;2210;51.938;8.488;2024-02-14T13:56:17;100547.00;;;10.98;100.00
4392;BME280;2210;51.938;8.488;2024-02-14T14:00:24;100553.09;;;11.00;100.00
4392;BME280;2210;51.938;8.488;2024-02-14T14:04:37;100549.88;;;11.03;100.00
4392;BME280;2210;51.938;8.488;2024-02-14T14:08:44;100556.25;;;11.03;100.00
4392;BME280;2210;51.938;8.488;2024-02-14T14:12:55;100550.72;;;11.03;100.00
4392;BME280;2210;51.938;8.488;2024-02-14T14:16:58;100551.31;;;11.05;100.00
4392;BME280;2210;51.938;8.488;2024-02-14T14:20:58;100543.41;;;11.09;100.00
4392;BME280;2210;51.938;8.488;2024-02-14T14:24:59;100552.63;;;11.14;100.00
4392;BME280;2210;51.938;8.488;2024-02-14T14:28:59;100543.84;;;11.18;100.00
4392;BME280;2210;51.938;8.488;2024-02-14T14:33:11;100547.22;;;11.20;100.00
4392;BME280;2210;51.938;8.488;2024-02-14T14:37:12;100540.97;;;11.24;100.00
4392;BME280;2210;51.938;8.488;2024-02-14T14:41:15;100548.53;;;11.29;100.00
4392;BME280;2210;51.938;8.488;2024-02-14T14:45:18;100543.84;;;11.29;100.00
4392;BME280;2210;51.938;8.488;2024-02-14T14:49:28;100545.03;;;11.34;100.00
4392;BME280;2210;51.938;8.488;2024-02-14T14:53:28;100542.03;;;11.35;100.00
4392;BME280;2210;51.938;8.488;2024-02-14T14:57:28;100539.28;;;11.35;100.00
4392;BME280;2210;51.938;8.488;2024-02-14T15:01:29;100535.94;;;11.33;100.00
4392;BME280;2210;51.938;8.488;2024-02-14T15:05:30;100546.50;;;11.36;100.00
4392;BME280;2210;51.938;8.488;2024-02-14T15:09:30;100547.56;;;11.35;100.00
4392;BME280;2210;51.938;8.488;2024-02-14T15:13:31;100552.25;;;11.35;100.00
4392;BME280;2210;51.938;8.488;2024-02-14T15:17:31;100542.28;;;11.34;100.00
4392;BME280;2210;51.938;8.488;2024-02-14T15:21:38;100549.88;;;11.26;100.00
4392;BME280;2210;51.938;8.488;2024-02-14T15:25:38;100553.25;;;11.17;100.00
4392;BME280;2210;51.938;8.488;2024-02-14T15:29:41;100543.75;;;11.12;100.00
4392;BME280;2210;51.938;8.488;2024-02-14T15:34:03;100548.09;;;11.08;100.00
4392;BME280;2210;51.938;8.488;2024-02-14T15:38:13;100539.69;;;11.03;100.00
4392;BME280;2210;51.938;8.488;2024-02-14T15:42:27;100551.22;;;11.00;100.00
4392;BME280;2210;51.938;8.488;2024-02-14T15:46:28;100547.34;;;11.01;100.00
4392;BME280;2210;51.938;8.488;2024-02-14T15:50:28;100549.53;;;10.99;100.00
4392;BME280;2210;51.938;8.488;2024-02-14T15:54:31;100551.91;;;10.95;100.00
4392;BME280;2210;51.938;8.488;2024-02-14T15:58:38;100553.84;;;10.95;100.00
4392;BME280;2210;51.938;8.488;2024-02-14T16:02:38;100549.41;;;10.94;100.00
4392;BME280;2210;51.938;8.488;2024-02-14T16:06:38;100541.00;;;10.89;100.00
4392;BME280;2210;51.938;8.488;2024-02-14T16:10:41;100544.00;;;10.87;100.00
4392;BME280;2210;51.938;8.488;2024-02-14T16:14:44;100540.88;;;10.84;100.00
4392;BME280;2210;51.938;8.488;2024-02-14T16:18:44;100548.78;;;10.80;100.00
4392;BME280;2210;51.938;8.488;2024-02-14T16:22:45;100555.63;;;10.77;100.00
4392;BME280;2210;51.938;8.488;2024-02-14T16:26:46;100553.94;;;10.76;100.00
4392;BME280;2210;51.938;8.488;2024-02-14T16:30:47;100550.81;;;10.73;100.00
4392;BME280;2210;51.938;8.488;2024-02-14T16:34:48;100555.97;;;10.69;100.00
4392;BME280;2210;51.938;8.488;2024-02-14T16:38:48;100558.13;;;10.67;100.00
4392;BME280;2210;51.938;8.488;2024-02-14T16:42:48;100553.09;;;10.64;100.00
4392;BME280;2210;51.938;8.488;2024-02-14T16:46:50;100562.44;;;10.63;100.00
4392;BME280;2210;51.938;8.488;2024-02-14T16:50:50;100558.22;;;10.60;100.00
4392;BME280;2210;51.938;8.488;2024-02-14T16:54:50;100552.13;;;10.58;100.00
4392;BME280;2210;51.938;8.488;2024-02-14T16:58:52;100549.00;;;10.55;100.00
4392;BME280;2210;51.938;8.488;2024-02-14T17:02:52;100547.28;;;10.54;100.00
4392;BME280;2210;51.938;8.488;2024-02-14T17:06:53;100552.81;;;10.54;100.00
4392;BME280;2210;51.938;8.488;2024-02-14T17:10:53;100551.16;;;10.53;100.00
4392;BME280;2210;51.938;8.488;2024-02-14T17:15:12;100562.63;;;10.50;100.00
4392;BME280;2210;51.938;8.488;2024-02-14T17:19:22;100551.59;;;10.50;100.00
4392;BME280;2210;51.938;8.488;2024-02-14T17:23:29;100560.97;;;10.49;100.00
4392;BME280;2210;51.938;8.488;2024-02-14T17:27:35;100547.19;;;10.49;100.00
4392;BME280;2210;51.938;8.488;2024-02-14T17:31:37;100551.25;;;10.46;100.00
4392;BME280;2210;51.938;8.488;2024-02-14T17:35:37;100554.84;;;10.46;100.00
4392;BME280;2210;51.938;8.488;2024-02-14T17:39:40;100553.16;;;10.45;100.00
4392;BME280;2210;51.938;8.488;2024-02-14T17:43:50;100556.78;;;10.46;100.00
4392;BME280;2210;51.938;8.488;2024-02-14T17:47:50;100566.94;;;10.45;100.00
4392;BME280;2210;51.938;8.488;2024-02-14T17:51:50;100561.44;;;10.45;100.00
4392;BME280;2210;51.938;8.488;2024-02-14T17:55:55;100565.03;;;10.46;100.00
4392;BME280;2210;51.938;8.488;2024-02-14T17:59:55;100572.00;;;10.49;100.00
4392;BME280;2210;51.938;8.488;2024-02-14T18:03:55;100572.84;;;10.49;100.00
4392;BME280;2210;51.938;8.488;2024-02-14T18:07:56;100572.00;;;10.49;100.00
4392;BME280;2210;51.938;8.488;2024-02-14T18:11:56;100577.28;;;10.50;100.00
4392;BME280;2210;51.938;8.488;2024-02-14T18:15:56;100571.75;;;10.50;100.00
4392;BME280;2210;51.938;8.488;2024-02-14T18:19:57;100574.03;;;10.53;100.00
4392;BME280;2210;51.938;8.488;2024-02-14T18:23:57;100571.53;;;10.52;100.00
4392;BME280;2210;51.938;8.488;2024-02-14T18:28:01;100584.25;;;10.53;100.00
4392;BME280;2210;51.938;8.488;2024-02-14T18:32:05;100581.25;;;10.54;100.00
4392;BME280;2210;51.938;8.488;2024-02-14T18:36:10;100579.56;;;10.53;100.00
4392;BME280;2210;51.938;8.488;2024-02-14T18:40:17;100585.06;;;10.53;100.00
4392;BME280;2210;51.938;8.488;2024-02-14T18:44:17;100584.81;;;10.55;100.00
4392;BME280;2210;51.938;8.488;2024-02-14T18:48:26;100587.34;;;10.56;100.00
4392;BME280;2210;51.938;8.488;2024-02-14T18:52:27;100581.81;;;10.56;100.00
4392;BME280;2210;51.938;8.488;2024-02-14T18:56:34;100584.34;;;10.58;100.00
4392;BME280;2210;51.938;8.488;2024-02-14T19:00:34;100582.44;;;10.58;100.00
4392;BME280;2210;51.938;8.488;2024-02-14T19:04:35;100571.19;;;10.60;100.00
4392;BME280;2210;51.938;8.488;2024-02-14T19:08:38;100584.72;;;10.61;100.00
4392;BME280;2210;51.938;8.488;2024-02-14T19:12:42;100587.25;;;10.63;100.00
4392;BME280;2210;51.938;8.488;2024-02-14T19:16:42;100583.41;;;10.64;100.00
4392;BME280;2210;51.938;8.488;2024-02-14T19:20:43;100584.00;;;10.66;100.00
4392;BME280;2210;51.938;8.488;2024-02-14T19:24:47;100592.06;;;10.68;100.00
4392;BME280;2210;51.938;8.488;2024-02-14T19:28:50;100584.00;;;10.66;100.00
4392;BME280;2210;51.938;8.488;2024-02-14T19:32:50;100592.28;;;10.66;100.00
4392;BME280;2210;51.938;8.488;2024-02-14T19:36:54;100590.38;;;10.67;100.00
4392;BME280;2210;51.938;8.488;2024-02-14T19:41:12;100582.34;;;10.65;100.00
4392;BME280;2210;51.938;8.488;2024-02-14T19:45:21;100586.16;;;10.64;100.00
4392;BME280;2210;51.938;8.488;2024-02-14T19:49:22;100583.19;;;10.66;100.00
4392;BME280;2210;51.938;8.488;2024-02-14T19:53:22;100591.19;;;10.67;100.00
4392;BME280;2210;51.938;8.488;2024-02-14T19:57:22;100590.13;;;10.68;100.00
4392;BME280;2210;51.938;8.488;2024-02-14T20:01:23;100588.59;;;10.72;100.00
4392;BME280;2210;51.938;8.488;2024-02-14T20:05:23;100593.28;;;10.72;100.00
4392;BME280;2210;51.938;8.488;2024-02-14T20:09:25;100583.69;;;10.74;100.00
4392;BME280;2210;51.938;8.488;2024-02-14T20:13:31;100594.47;;;10.76;100.00
4392;BME280;2210;51.938;8.488;2024-02-14T20:17:32;100601.66;;;10.77;100.00
4392;BME280;2210;51.938;8.488;2024-02-14T20:21:33;100594.22;;;10.77;100.00
4392;BME280;2210;51.938;8.488;2024-02-14T20:25:59;100602.03;;;10.80;100.00
4392;BME280;2210;51.938;8.488;2024-02-14T20:30:00;100611.75;;;10.83;100.00
4392;BME280;2210;51.938;8.488;2024-02-14T20:34:00;100606.22;;;10.83;100.00
4392;BME280;2210;51.938;8.488;2024-02-14T20:38:03;100602.16;;;10.86;100.00
4392;BME280;2210;51.938;8.488;2024-02-14T20:42:09;100605.75;;;10.86;100.00
4392;BME280;2210;51.938;8.488;2024-02-14T20:46:10;100613.78;;;10.88;100.00
4392;BME280;2210;51.938;8.488;2024-02-14T20:50:12;100614.63;;;10.88;100.00
4392;BME280;2210;51.938;8.488;2024-02-14T20:54:13;100616.09;;;10.91;100.00
4392;BME280;2210;51.938;8.488;2024-02-14T20:58:13;100623.03;;;10.93;100.00
4392;BME280;2210;51.938;8.488;2024-02-14T21:02:13;100618.72;;;10.98;100.00
4392;BME280;2210;51.938;8.488;2024-02-14T21:06:13;100625.09;;;10.98;100.00
4392;BME280;2210;51.938;8.488;2024-02-14T21:10:17;100617.41;;;11.00;100.00
4392;BME280;2210;51.938;8.488;2024-02-14T21:14:17;100622.47;;;11.03;100.00
4392;BME280;2210;51.938;8.488;2024-02-14T21:18:20;100635.19;;;11.04;100.00
4392;BME280;2210;51.938;8.488;2024-02-14T21:22:23;100632.19;;;11.06;100.00
4392;BME280;2210;51.938;8.488;2024-02-14T21:26:23;100634.44;;;11.09;100.00
4392;BME280;2210;51.938;8.488;2024-02-14T21:30:24;100630.00;;;11.08;100.00
4392;BME280;2210;51.938;8.488;2024-02-14T21:34:24;100633.13;;;11.11;100.00
4392;BME280;2210;51.938;8.488;2024-02-14T21:38:26;100628.19;;;11.13;100.00
4392;BME280;2210;51.938;8.488;2024-02-14T21:42:33;100631.81;;;11.14;100.00